NCAR-RAP Real-Time Weather Data

Output produced by METARs form (08 May 2021  01:37 UTC)
found at http://weather.rap.ucar.edu/surface/
 
KSBN 080054Z 35010KT 10SM CLR 06/M01 A3002 RMK AO2 SLP171 T00611011
KSBN 072354Z 33015G23KT 10SM CLR 08/00 A3002 RMK AO2 PK WND 35029/2301 SLP170 T00830000 10133 20083 53012
KSBN 072254Z 35018G28KT 10SM CLR 10/M01 A3000 RMK AO2 PK WND 34029/2237 SLP164 T01001011
KSBN 072154Z 34016G31KT 10SM CLR 11/M02 A3000 RMK AO2 PK WND 35031/2152 SLP162 T01111017
KSBN 072054Z 34018G25KT 10SM CLR 12/01 A2998 RMK AO2 PK WND 32030/2006 SLP157 T01220011 53001
KSBN 071954Z 35020G26KT 10SM FEW049 SCT055 13/01 A2998 RMK AO2 PK WND 35030/1940 SLP155 T01280011
KSBN 071854Z 36013G22KT 10SM BKN050 12/02 A2998 RMK AO2 SLP155 T01220017 $
KSBN 071754Z 34016G21KT 10SM SCT036 BKN080 13/04 A2998 RMK AO2 SLP156 60000 T01280039 10133 20044 58002 $
KSBN 071654Z 30011KT 10SM FEW065 BKN080 13/03 A2999 RMK AO2 SLP158 T01280033 $
KSBN 071554Z 31011KT 10SM FEW039 SCT050 OVC065 13/03 A2999 RMK AO2 SLP158 T01280033 $
KSBN 071454Z 25007KT 10SM BKN070 11/03 A2999 RMK AO2 RAB1355E04 SLP158 P0000 60000 T01110033 $
KSBN 071354Z 24003KT 08/03 A2999 RMK AO2 SLP160 T00780028 RVRNO $
KSBN 071254Z 25004KT 10SM SCT095 BKN120 07/02 A3000 RMK AO2 SLP163 T00670022
KSBN 071154Z 21005KT 7SM SCT120 04/02 A3000 RMK AO2 SLP163 70002 T00440022 10044 20011 55003
KSBN 071054Z 00000KT 4SM BR CLR 02/01 A2999 RMK AO2 SLP160 T00220006
KSBN 070954Z 20003KT 7SM CLR 02/00 A2999 RMK AO2 SLP162 T00170000